sensor_id;sensor_type;location;lat;lon;timestamp;P1;durP1;ratioP1;P2;durP2;ratioP2
7575;SDS011;3829;50.798;4.358;2023-08-30T00:01:48;12.80;;;4.03;;
7575;SDS011;3829;50.798;4.358;2023-08-30T00:04:14;5.90;;;4.30;;
7575;SDS011;3829;50.798;4.358;2023-08-30T00:06:39;4.67;;;4.17;;
7575;SDS011;3829;50.798;4.358;2023-08-30T00:09:05;7.57;;;4.30;;
7575;SDS011;3829;50.798;4.358;2023-08-30T00:11:30;7.40;;;4.03;;
7575;SDS011;3829;50.798;4.358;2023-08-30T00:14:05;7.57;;;4.03;;
7575;SDS011;3829;50.798;4.358;2023-08-30T00:16:32;6.30;;;3.57;;
7575;SDS011;3829;50.798;4.358;2023-08-30T00:18:58;5.27;;;3.70;;
7575;SDS011;3829;50.798;4.358;2023-08-30T00:21:24;6.43;;;3.90;;
7575;SDS011;3829;50.798;4.358;2023-08-30T00:23:50;5.63;;;3.60;;
7575;SDS011;3829;50.798;4.358;2023-08-30T00:26:16;4.37;;;3.67;;
7575;SDS011;3829;50.798;4.358;2023-08-30T00:28:42;4.97;;;3.20;;
7575;SDS011;3829;50.798;4.358;2023-08-30T00:31:08;5.97;;;3.80;;
7575;SDS011;3829;50.798;4.358;2023-08-30T00:33:33;5.37;;;3.40;;
7575;SDS011;3829;50.798;4.358;2023-08-30T00:35:59;5.10;;;3.73;;
7575;SDS011;3829;50.798;4.358;2023-08-30T00:38:26;4.33;;;3.13;;
7575;SDS011;3829;50.798;4.358;2023-08-30T00:40:53;6.30;;;3.90;;
7575;SDS011;3829;50.798;4.358;2023-08-30T00:43:19;5.23;;;3.63;;
7575;SDS011;3829;50.798;4.358;2023-08-30T00:45:45;6.17;;;3.57;;
7575;SDS011;3829;50.798;4.358;2023-08-30T00:48:12;5.50;;;3.77;;
7575;SDS011;3829;50.798;4.358;2023-08-30T00:50:38;5.93;;;4.30;;
7575;SDS011;3829;50.798;4.358;2023-08-30T00:53:04;4.33;;;3.87;;
7575;SDS011;3829;50.798;4.358;2023-08-30T00:55:32;4.90;;;3.90;;
7575;SDS011;3829;50.798;4.358;2023-08-30T00:57:59;7.17;;;4.00;;
7575;SDS011;3829;50.798;4.358;2023-08-30T01:00:26;7.57;;;5.13;;
7575;SDS011;3829;50.798;4.358;2023-08-30T01:02:53;10.57;;;5.20;;
7575;SDS011;3829;50.798;4.358;2023-08-30T01:05:20;6.17;;;4.27;;
7575;SDS011;3829;50.798;4.358;2023-08-30T01:07:45;6.80;;;4.30;;
7575;SDS011;3829;50.798;4.358;2023-08-30T01:10:11;6.53;;;4.10;;
7575;SDS011;3829;50.798;4.358;2023-08-30T01:12:38;8.63;;;4.83;;
7575;SDS011;3829;50.798;4.358;2023-08-30T01:15:09;7.63;;;4.07;;
7575;SDS011;3829;50.798;4.358;2023-08-30T01:17:39;7.70;;;4.63;;
7575;SDS011;3829;50.798;4.358;2023-08-30T01:20:06;7.93;;;4.27;;
7575;SDS011;3829;50.798;4.358;2023-08-30T01:28:19;6.10;;;4.67;;
7575;SDS011;3829;50.798;4.358;2023-08-30T01:30:47;6.67;;;4.50;;
7575;SDS011;3829;50.798;4.358;2023-08-30T01:33:14;7.87;;;5.53;;
7575;SDS011;3829;50.798;4.358;2023-08-30T01:35:41;6.17;;;5.00;;
7575;SDS011;3829;50.798;4.358;2023-08-30T01:38:07;11.03;;;6.27;;
7575;SDS011;3829;50.798;4.358;2023-08-30T01:40:35;9.00;;;5.57;;
7575;SDS011;3829;50.798;4.358;2023-08-30T01:43:02;8.27;;;5.13;;
7575;SDS011;3829;50.798;4.358;2023-08-30T01:45:30;7.07;;;5.53;;
7575;SDS011;3829;50.798;4.358;2023-08-30T01:47:58;7.70;;;5.47;;
7575;SDS011;3829;50.798;4.358;2023-08-30T01:50:24;8.07;;;5.40;;
7575;SDS011;3829;50.798;4.358;2023-08-30T01:52:51;7.67;;;5.37;;
7575;SDS011;3829;50.798;4.358;2023-08-30T01:55:17;9.83;;;5.63;;
7575;SDS011;3829;50.798;4.358;2023-08-30T01:57:45;8.27;;;5.80;;
7575;SDS011;3829;50.798;4.358;2023-08-30T02:00:11;7.53;;;5.67;;
7575;SDS011;3829;50.798;4.358;2023-08-30T02:02:37;7.63;;;5.60;;
7575;SDS011;3829;50.798;4.358;2023-08-30T02:05:03;10.33;;;6.80;;
7575;SDS011;3829;50.798;4.358;2023-08-30T02:07:32;8.23;;;5.27;;
7575;SDS011;3829;50.798;4.358;2023-08-30T02:10:05;10.43;;;5.93;;
7575;SDS011;3829;50.798;4.358;2023-08-30T02:12:37;10.10;;;6.07;;
7575;SDS011;3829;50.798;4.358;2023-08-30T02:15:11;8.20;;;5.60;;
7575;SDS011;3829;50.798;4.358;2023-08-30T02:17:38;9.63;;;5.17;;
7575;SDS011;3829;50.798;4.358;2023-08-30T02:20:04;11.67;;;6.40;;
7575;SDS011;3829;50.798;4.358;2023-08-30T02:22:31;8.03;;;5.70;;
7575;SDS011;3829;50.798;4.358;2023-08-30T02:24:59;8.57;;;5.73;;
7575;SDS011;3829;50.798;4.358;2023-08-30T02:27:26;8.03;;;6.10;;
7575;SDS011;3829;50.798;4.358;2023-08-30T02:29:51;7.17;;;5.50;;
7575;SDS011;3829;50.798;4.358;2023-08-30T02:32:17;6.63;;;5.33;;
7575;SDS011;3829;50.798;4.358;2023-08-30T02:34:47;8.13;;;5.53;;
7575;SDS011;3829;50.798;4.358;2023-08-30T02:37:14;7.80;;;5.40;;
7575;SDS011;3829;50.798;4.358;2023-08-30T02:39:40;11.40;;;5.50;;
7575;SDS011;3829;50.798;4.358;2023-08-30T02:42:06;10.23;;;5.30;;
7575;SDS011;3829;50.798;4.358;2023-08-30T02:44:31;9.73;;;6.07;;
7575;SDS011;3829;50.798;4.358;2023-08-30T02:46:57;6.93;;;5.20;;
7575;SDS011;3829;50.798;4.358;2023-08-30T02:49:22;9.47;;;5.57;;
7575;SDS011;3829;50.798;4.358;2023-08-30T02:51:48;11.10;;;6.30;;
7575;SDS011;3829;50.798;4.358;2023-08-30T02:54:13;8.30;;;5.97;;
7575;SDS011;3829;50.798;4.358;2023-08-30T02:56:40;8.97;;;6.73;;
7575;SDS011;3829;50.798;4.358;2023-08-30T02:59:08;11.30;;;5.63;;
7575;SDS011;3829;50.798;4.358;2023-08-30T03:01:34;13.10;;;6.30;;
7575;SDS011;3829;50.798;4.358;2023-08-30T03:04:00;12.73;;;6.67;;
7575;SDS011;3829;50.798;4.358;2023-08-30T03:06:25;11.33;;;6.90;;
7575;SDS011;3829;50.798;4.358;2023-08-30T03:08:53;14.27;;;7.27;;
7575;SDS011;3829;50.798;4.358;2023-08-30T03:11:19;11.80;;;6.83;;
7575;SDS011;3829;50.798;4.358;2023-08-30T03:13:44;15.57;;;6.63;;
7575;SDS011;3829;50.798;4.358;2023-08-30T03:16:11;9.97;;;6.53;;
7575;SDS011;3829;50.798;4.358;2023-08-30T03:18:38;12.53;;;7.10;;
7575;SDS011;3829;50.798;4.358;2023-08-30T03:21:04;16.87;;;8.00;;
7575;SDS011;3829;50.798;4.358;2023-08-30T03:23:30;10.27;;;6.33;;
7575;SDS011;3829;50.798;4.358;2023-08-30T03:25:57;11.03;;;6.77;;
7575;SDS011;3829;50.798;4.358;2023-08-30T03:28:24;14.03;;;7.17;;
7575;SDS011;3829;50.798;4.358;2023-08-30T03:30:50;11.70;;;7.30;;
7575;SDS011;3829;50.798;4.358;2023-08-30T03:33:15;9.93;;;6.50;;
7575;SDS011;3829;50.798;4.358;2023-08-30T03:35:41;11.87;;;7.03;;
7575;SDS011;3829;50.798;4.358;2023-08-30T03:38:07;12.17;;;6.13;;
7575;SDS011;3829;50.798;4.358;2023-08-30T03:40:32;10.57;;;6.00;;
7575;SDS011;3829;50.798;4.358;2023-08-30T03:42:58;12.47;;;7.07;;
7575;SDS011;3829;50.798;4.358;2023-08-30T03:45:23;13.17;;;7.37;;
7575;SDS011;3829;50.798;4.358;2023-08-30T03:47:49;12.33;;;6.27;;
7575;SDS011;3829;50.798;4.358;2023-08-30T03:50:14;12.57;;;6.93;;
7575;SDS011;3829;50.798;4.358;2023-08-30T03:52:40;10.70;;;6.93;;
7575;SDS011;3829;50.798;4.358;2023-08-30T03:55:06;14.10;;;6.30;;
7575;SDS011;3829;50.798;4.358;2023-08-30T03:57:31;10.33;;;6.63;;
7575;SDS011;3829;50.798;4.358;2023-08-30T03:59:57;9.20;;;6.07;;
7575;SDS011;3829;50.798;4.358;2023-08-30T04:02:23;12.00;;;6.90;;
7575;SDS011;3829;50.798;4.358;2023-08-30T04:04:48;10.17;;;5.77;;
7575;SDS011;3829;50.798;4.358;2023-08-30T04:07:14;11.07;;;6.10;;
7575;SDS011;3829;50.798;4.358;2023-08-30T04:09:40;9.47;;;6.07;;
7575;SDS011;3829;50.798;4.358;2023-08-30T04:12:06;9.27;;;5.70;;
7575;SDS011;3829;50.798;4.358;2023-08-30T04:14:32;12.93;;;6.07;;
7575;SDS011;3829;50.798;4.358;2023-08-30T04:16:57;11.37;;;5.20;;
7575;SDS011;3829;50.798;4.358;2023-08-30T04:19:23;9.87;;;5.00;;
7575;SDS011;3829;50.798;4.358;2023-08-30T04:21:48;8.83;;;5.50;;
7575;SDS011;3829;50.798;4.358;2023-08-30T04:24:14;11.93;;;5.77;;
7575;SDS011;3829;50.798;4.358;2023-08-30T04:26:40;9.43;;;5.27;;
7575;SDS011;3829;50.798;4.358;2023-08-30T04:29:06;10.73;;;5.27;;
7575;SDS011;3829;50.798;4.358;2023-08-30T04:31:31;7.87;;;5.13;;
7575;SDS011;3829;50.798;4.358;2023-08-30T04:33:57;10.77;;;5.47;;
7575;SDS011;3829;50.798;4.358;2023-08-30T04:36:23;9.10;;;5.23;;
7575;SDS011;3829;50.798;4.358;2023-08-30T04:38:48;12.80;;;5.67;;
7575;SDS011;3829;50.798;4.358;2023-08-30T04:41:14;11.43;;;5.80;;
7575;SDS011;3829;50.798;4.358;2023-08-30T04:43:39;12.47;;;6.10;;
7575;SDS011;3829;50.798;4.358;2023-08-30T04:46:05;12.60;;;6.33;;
7575;SDS011;3829;50.798;4.358;2023-08-30T04:48:31;12.30;;;6.37;;
7575;SDS011;3829;50.798;4.358;2023-08-30T04:50:59;14.57;;;6.23;;
7575;SDS011;3829;50.798;4.358;2023-08-30T04:53:26;12.50;;;6.03;;
7575;SDS011;3829;50.798;4.358;2023-08-30T04:55:52;11.93;;;6.53;;
7575;SDS011;3829;50.798;4.358;2023-08-30T04:58:17;11.33;;;6.00;;
7575;SDS011;3829;50.798;4.358;2023-08-30T05:00:43;13.07;;;6.63;;
7575;SDS011;3829;50.798;4.358;2023-08-30T05:03:08;16.80;;;6.80;;
7575;SDS011;3829;50.798;4.358;2023-08-30T05:05:34;12.60;;;6.73;;
7575;SDS011;3829;50.798;4.358;2023-08-30T05:07:59;15.87;;;7.17;;
7575;SDS011;3829;50.798;4.358;2023-08-30T05:10:25;18.20;;;7.50;;
7575;SDS011;3829;50.798;4.358;2023-08-30T05:12:51;15.60;;;7.73;;
7575;SDS011;3829;50.798;4.358;2023-08-30T05:15:17;17.43;;;7.90;;
7575;SDS011;3829;50.798;4.358;2023-08-30T05:17:43;13.47;;;7.03;;
7575;SDS011;3829;50.798;4.358;2023-08-30T05:20:09;15.90;;;6.93;;
7575;SDS011;3829;50.798;4.358;2023-08-30T05:22:34;10.60;;;6.03;;
7575;SDS011;3829;50.798;4.358;2023-08-30T05:25:00;14.03;;;7.23;;
7575;SDS011;3829;50.798;4.358;2023-08-30T05:27:26;11.40;;;6.70;;
7575;SDS011;3829;50.798;4.358;2023-08-30T05:29:52;14.50;;;6.40;;
7575;SDS011;3829;50.798;4.358;2023-08-30T05:32:18;8.93;;;6.17;;
7575;SDS011;3829;50.798;4.358;2023-08-30T05:34:43;13.03;;;7.50;;
7575;SDS011;3829;50.798;4.358;2023-08-30T05:37:09;10.77;;;6.40;;
7575;SDS011;3829;50.798;4.358;2023-08-30T05:39:35;9.23;;;6.87;;
7575;SDS011;3829;50.798;4.358;2023-08-30T05:42:00;10.70;;;7.07;;
7575;SDS011;3829;50.798;4.358;2023-08-30T05:44:26;12.60;;;7.23;;
7575;SDS011;3829;50.798;4.358;2023-08-30T05:46:52;12.87;;;6.50;;
7575;SDS011;3829;50.798;4.358;2023-08-30T05:49:17;16.70;;;7.37;;
7575;SDS011;3829;50.798;4.358;2023-08-30T05:51:43;8.80;;;6.50;;
7575;SDS011;3829;50.798;4.358;2023-08-30T05:54:08;12.50;;;7.40;;
7575;SDS011;3829;50.798;4.358;2023-08-30T05:56:34;9.93;;;5.73;;
7575;SDS011;3829;50.798;4.358;2023-08-30T05:58:59;10.90;;;6.17;;
7575;SDS011;3829;50.798;4.358;2023-08-30T06:01:25;9.47;;;6.20;;
7575;SDS011;3829;50.798;4.358;2023-08-30T06:03:50;10.30;;;6.07;;
7575;SDS011;3829;50.798;4.358;2023-08-30T06:06:16;8.90;;;6.63;;
7575;SDS011;3829;50.798;4.358;2023-08-30T06:08:42;13.00;;;6.63;;
7575;SDS011;3829;50.798;4.358;2023-08-30T06:11:08;8.93;;;6.50;;
7575;SDS011;3829;50.798;4.358;2023-08-30T06:13:33;12.57;;;6.40;;
7575;SDS011;3829;50.798;4.358;2023-08-30T06:15:59;12.63;;;6.07;;
7575;SDS011;3829;50.798;4.358;2023-08-30T06:18:26;11.77;;;6.50;;
7575;SDS011;3829;50.798;4.358;2023-08-30T06:20:54;7.77;;;5.93;;
7575;SDS011;3829;50.798;4.358;2023-08-30T06:23:20;7.60;;;5.63;;
7575;SDS011;3829;50.798;4.358;2023-08-30T06:25:52;7.33;;;5.10;;
7575;SDS011;3829;50.798;4.358;2023-08-30T06:28:22;7.03;;;4.83;;
7575;SDS011;3829;50.798;4.358;2023-08-30T06:30:48;8.90;;;5.70;;
7575;SDS011;3829;50.798;4.358;2023-08-30T06:33:14;7.43;;;5.50;;
7575;SDS011;3829;50.798;4.358;2023-08-30T06:35:39;7.83;;;5.73;;
7575;SDS011;3829;50.798;4.358;2023-08-30T06:38:06;8.23;;;5.83;;
7575;SDS011;3829;50.798;4.358;2023-08-30T06:40:32;8.63;;;5.40;;
7575;SDS011;3829;50.798;4.358;2023-08-30T06:42:57;9.53;;;5.53;;
7575;SDS011;3829;50.798;4.358;2023-08-30T06:45:24;10.33;;;5.43;;
7575;SDS011;3829;50.798;4.358;2023-08-30T06:47:50;11.47;;;4.80;;
7575;SDS011;3829;50.798;4.358;2023-08-30T06:50:16;8.87;;;5.53;;
7575;SDS011;3829;50.798;4.358;2023-08-30T06:52:42;9.00;;;5.97;;
7575;SDS011;3829;50.798;4.358;2023-08-30T06:55:08;9.43;;;5.30;;
7575;SDS011;3829;50.798;4.358;2023-08-30T06:57:34;11.13;;;5.53;;
7575;SDS011;3829;50.798;4.358;2023-08-30T07:00:00;4.83;;;3.83;;
7575;SDS011;3829;50.798;4.358;2023-08-30T07:02:32;7.23;;;4.90;;
7575;SDS011;3829;50.798;4.358;2023-08-30T07:05:00;7.47;;;5.47;;
7575;SDS011;3829;50.798;4.358;2023-08-30T07:07:26;8.37;;;4.93;;
7575;SDS011;3829;50.798;4.358;2023-08-30T07:09:51;7.97;;;4.90;;
7575;SDS011;3829;50.798;4.358;2023-08-30T07:12:17;6.70;;;5.23;;
7575;SDS011;3829;50.798;4.358;2023-08-30T07:14:42;6.00;;;4.83;;
7575;SDS011;3829;50.798;4.358;2023-08-30T07:17:08;8.83;;;5.30;;
7575;SDS011;3829;50.798;4.358;2023-08-30T07:19:33;6.83;;;4.33;;
7575;SDS011;3829;50.798;4.358;2023-08-30T07:21:59;6.63;;;4.80;;
7575;SDS011;3829;50.798;4.358;2023-08-30T07:24:24;8.30;;;5.17;;
7575;SDS011;3829;50.798;4.358;2023-08-30T07:26:50;5.53;;;4.70;;
7575;SDS011;3829;50.798;4.358;2023-08-30T07:29:16;6.13;;;4.43;;
7575;SDS011;3829;50.798;4.358;2023-08-30T07:31:41;7.50;;;4.67;;
7575;SDS011;3829;50.798;4.358;2023-08-30T07:34:07;8.17;;;5.13;;
7575;SDS011;3829;50.798;4.358;2023-08-30T07:36:33;7.47;;;4.40;;
7575;SDS011;3829;50.798;4.358;2023-08-30T07:38:59;7.93;;;4.73;;
7575;SDS011;3829;50.798;4.358;2023-08-30T07:41:24;6.73;;;4.53;;
7575;SDS011;3829;50.798;4.358;2023-08-30T07:43:50;5.87;;;4.57;;
7575;SDS011;3829;50.798;4.358;2023-08-30T07:46:15;5.30;;;4.50;;
7575;SDS011;3829;50.798;4.358;2023-08-30T07:48:41;7.23;;;4.70;;
7575;SDS011;3829;50.798;4.358;2023-08-30T07:51:07;7.33;;;4.03;;
7575;SDS011;3829;50.798;4.358;2023-08-30T07:53:32;5.97;;;4.10;;
7575;SDS011;3829;50.798;4.358;2023-08-30T07:55:58;6.27;;;4.37;;
7575;SDS011;3829;50.798;4.358;2023-08-30T07:58:23;6.27;;;4.40;;
7575;SDS011;3829;50.798;4.358;2023-08-30T08:00:50;4.87;;;3.97;;
7575;SDS011;3829;50.798;4.358;2023-08-30T08:03:17;7.13;;;4.37;;
7575;SDS011;3829;50.798;4.358;2023-08-30T08:05:45;5.67;;;4.23;;
7575;SDS011;3829;50.798;4.358;2023-08-30T08:08:11;6.47;;;4.50;;
7575;SDS011;3829;50.798;4.358;2023-08-30T08:10:37;6.77;;;3.77;;
7575;SDS011;3829;50.798;4.358;2023-08-30T08:13:02;6.77;;;4.07;;
7575;SDS011;3829;50.798;4.358;2023-08-30T08:15:29;5.87;;;3.93;;
7575;SDS011;3829;50.798;4.358;2023-08-30T08:17:57;7.17;;;4.23;;
7575;SDS011;3829;50.798;4.358;2023-08-30T08:20:23;9.00;;;4.70;;
7575;SDS011;3829;50.798;4.358;2023-08-30T08:22:48;8.53;;;4.67;;
7575;SDS011;3829;50.798;4.358;2023-08-30T08:25:14;8.13;;;4.93;;
7575;SDS011;3829;50.798;4.358;2023-08-30T08:27:41;6.57;;;4.77;;
7575;SDS011;3829;50.798;4.358;2023-08-30T08:30:07;9.07;;;4.70;;
7575;SDS011;3829;50.798;4.358;2023-08-30T08:32:34;9.20;;;5.30;;
7575;SDS011;3829;50.798;4.358;2023-08-30T08:35:00;7.50;;;4.70;;
7575;SDS011;3829;50.798;4.358;2023-08-30T08:37:26;8.40;;;4.87;;
7575;SDS011;3829;50.798;4.358;2023-08-30T08:39:51;9.63;;;5.90;;
7575;SDS011;3829;50.798;4.358;2023-08-30T08:42:18;9.03;;;5.47;;
7575;SDS011;3829;50.798;4.358;2023-08-30T08:44:46;7.53;;;4.97;;
7575;SDS011;3829;50.798;4.358;2023-08-30T08:47:14;9.70;;;5.40;;
7575;SDS011;3829;50.798;4.358;2023-08-30T08:49:41;10.10;;;5.27;;
7575;SDS011;3829;50.798;4.358;2023-08-30T08:52:07;8.87;;;5.30;;
7575;SDS011;3829;50.798;4.358;2023-08-30T08:54:33;7.87;;;4.80;;
7575;SDS011;3829;50.798;4.358;2023-08-30T08:56:59;8.03;;;5.47;;
7575;SDS011;3829;50.798;4.358;2023-08-30T08:59:27;7.10;;;4.90;;
7575;SDS011;3829;50.798;4.358;2023-08-30T09:01:53;7.67;;;5.20;;
7575;SDS011;3829;50.798;4.358;2023-08-30T09:04:18;6.43;;;4.73;;
7575;SDS011;3829;50.798;4.358;2023-08-30T09:06:45;5.60;;;4.47;;
7575;SDS011;3829;50.798;4.358;2023-08-30T09:09:10;5.97;;;4.10;;
7575;SDS011;3829;50.798;4.358;2023-08-30T09:11:36;8.60;;;4.47;;
7575;SDS011;3829;50.798;4.358;2023-08-30T09:14:02;6.23;;;4.60;;
7575;SDS011;3829;50.798;4.358;2023-08-30T09:16:28;7.60;;;4.63;;
7575;SDS011;3829;50.798;4.358;2023-08-30T09:18:57;5.30;;;4.10;;
7575;SDS011;3829;50.798;4.358;2023-08-30T09:21:27;6.23;;;4.57;;
7575;SDS011;3829;50.798;4.358;2023-08-30T09:23:57;4.77;;;4.07;;
7575;SDS011;3829;50.798;4.358;2023-08-30T09:26:26;9.00;;;5.80;;
7575;SDS011;3829;50.798;4.358;2023-08-30T09:28:54;5.07;;;4.50;;
7575;SDS011;3829;50.798;4.358;2023-08-30T09:31:20;6.63;;;4.80;;
7575;SDS011;3829;50.798;4.358;2023-08-30T09:33:46;5.43;;;4.93;;
7575;SDS011;3829;50.798;4.358;2023-08-30T09:36:13;7.43;;;5.33;;
7575;SDS011;3829;50.798;4.358;2023-08-30T09:38:39;5.70;;;5.07;;
7575;SDS011;3829;50.798;4.358;2023-08-30T09:41:04;6.87;;;5.03;;
7575;SDS011;3829;50.798;4.358;2023-08-30T09:43:31;6.27;;;5.27;;
7575;SDS011;3829;50.798;4.358;2023-08-30T09:46:02;8.93;;;6.23;;
7575;SDS011;3829;50.798;4.358;2023-08-30T09:48:29;8.90;;;5.70;;
7575;SDS011;3829;50.798;4.358;2023-08-30T09:50:55;7.50;;;5.47;;
7575;SDS011;3829;50.798;4.358;2023-08-30T09:53:25;6.20;;;5.10;;
7575;SDS011;3829;50.798;4.358;2023-08-30T09:55:54;6.40;;;5.00;;
7575;SDS011;3829;50.798;4.358;2023-08-30T09:58:21;9.60;;;5.50;;
7575;SDS011;3829;50.798;4.358;2023-08-30T10:00:48;5.03;;;4.53;;
7575;SDS011;3829;50.798;4.358;2023-08-30T10:03:14;6.17;;;4.93;;
7575;SDS011;3829;50.798;4.358;2023-08-30T10:05:42;9.73;;;5.20;;
7575;SDS011;3829;50.798;4.358;2023-08-30T10:08:09;7.43;;;5.60;;
7575;SDS011;3829;50.798;4.358;2023-08-30T10:10:37;5.63;;;4.90;;
7575;SDS011;3829;50.798;4.358;2023-08-30T10:13:04;10.27;;;5.67;;
7575;SDS011;3829;50.798;4.358;2023-08-30T10:15:32;7.13;;;6.20;;
7575;SDS011;3829;50.798;4.358;2023-08-30T10:18:00;8.33;;;5.63;;
7575;SDS011;3829;50.798;4.358;2023-08-30T10:20:28;8.87;;;6.27;;
7575;SDS011;3829;50.798;4.358;2023-08-30T10:22:54;12.63;;;6.53;;
7575;SDS011;3829;50.798;4.358;2023-08-30T10:25:24;8.53;;;6.87;;
7575;SDS011;3829;50.798;4.358;2023-08-30T10:27:54;7.67;;;5.77;;
7575;SDS011;3829;50.798;4.358;2023-08-30T10:30:21;7.57;;;6.23;;
7575;SDS011;3829;50.798;4.358;2023-08-30T10:32:47;7.33;;;6.03;;
7575;SDS011;3829;50.798;4.358;2023-08-30T10:35:14;8.50;;;5.90;;
7575;SDS011;3829;50.798;4.358;2023-08-30T10:37:40;5.83;;;5.33;;
7575;SDS011;3829;50.798;4.358;2023-08-30T10:40:07;6.03;;;5.43;;
7575;SDS011;3829;50.798;4.358;2023-08-30T10:42:33;7.47;;;5.13;;
7575;SDS011;3829;50.798;4.358;2023-08-30T10:45:00;12.17;;;5.77;;
7575;SDS011;3829;50.798;4.358;2023-08-30T10:47:30;7.33;;;5.43;;
7575;SDS011;3829;50.798;4.358;2023-08-30T10:49:57;6.17;;;5.30;;
7575;SDS011;3829;50.798;4.358;2023-08-30T10:52:25;7.10;;;5.90;;
7575;SDS011;3829;50.798;4.358;2023-08-30T10:54:51;7.47;;;5.73;;
7575;SDS011;3829;50.798;4.358;2023-08-30T10:57:19;7.60;;;5.13;;
7575;SDS011;3829;50.798;4.358;2023-08-30T11:00:03;7.30;;;5.70;;
7575;SDS011;3829;50.798;4.358;2023-08-30T11:02:43;6.60;;;5.13;;
7575;SDS011;3829;50.798;4.358;2023-08-30T11:05:11;7.43;;;5.70;;
7575;SDS011;3829;50.798;4.358;2023-08-30T11:07:36;6.97;;;5.87;;
7575;SDS011;3829;50.798;4.358;2023-08-30T11:10:05;10.27;;;6.13;;
7575;SDS011;3829;50.798;4.358;2023-08-30T11:12:31;9.63;;;5.80;;
7575;SDS011;3829;50.798;4.358;2023-08-30T11:14:57;7.70;;;5.90;;
7575;SDS011;3829;50.798;4.358;2023-08-30T11:17:23;6.53;;;5.50;;
7575;SDS011;3829;50.798;4.358;2023-08-30T11:19:51;8.17;;;6.20;;
7575;SDS011;3829;50.798;4.358;2023-08-30T11:22:22;6.17;;;5.57;;
7575;SDS011;3829;50.798;4.358;2023-08-30T11:24:48;7.90;;;6.00;;
7575;SDS011;3829;50.798;4.358;2023-08-30T11:27:16;7.73;;;5.90;;
7575;SDS011;3829;50.798;4.358;2023-08-30T11:29:42;8.37;;;5.93;;
7575;SDS011;3829;50.798;4.358;2023-08-30T11:32:08;7.17;;;6.17;;
7575;SDS011;3829;50.798;4.358;2023-08-30T11:34:33;6.83;;;5.50;;
7575;SDS011;3829;50.798;4.358;2023-08-30T11:36:59;8.17;;;5.60;;
7575;SDS011;3829;50.798;4.358;2023-08-30T11:39:26;8.17;;;4.87;;
7575;SDS011;3829;50.798;4.358;2023-08-30T11:41:54;12.20;;;4.43;;
7575;SDS011;3829;50.798;4.358;2023-08-30T11:44:19;7.13;;;4.33;;
7575;SDS011;3829;50.798;4.358;2023-08-30T11:46:48;5.20;;;3.77;;
7575;SDS011;3829;50.798;4.358;2023-08-30T11:49:14;10.77;;;5.50;;
7575;SDS011;3829;50.798;4.358;2023-08-30T11:51:41;7.67;;;2.73;;
7575;SDS011;3829;50.798;4.358;2023-08-30T11:54:07;8.67;;;2.50;;
7575;SDS011;3829;50.798;4.358;2023-08-30T11:56:33;8.53;;;2.77;;
7575;SDS011;3829;50.798;4.358;2023-08-30T11:59:00;7.13;;;2.80;;
7575;SDS011;3829;50.798;4.358;2023-08-30T12:01:27;10.27;;;2.77;;
7575;SDS011;3829;50.798;4.358;2023-08-30T12:03:53;7.37;;;3.20;;
7575;SDS011;3829;50.798;4.358;2023-08-30T12:06:22;9.20;;;2.93;;
7575;SDS011;3829;50.798;4.358;2023-08-30T12:08:49;10.73;;;2.80;;
7575;SDS011;3829;50.798;4.358;2023-08-30T12:11:22;8.30;;;3.20;;
7575;SDS011;3829;50.798;4.358;2023-08-30T12:13:48;7.57;;;2.67;;
7575;SDS011;3829;50.798;4.358;2023-08-30T12:16:15;6.77;;;2.40;;
7575;SDS011;3829;50.798;4.358;2023-08-30T12:18:43;6.40;;;2.00;;
7575;SDS011;3829;50.798;4.358;2023-08-30T12:21:08;6.50;;;2.77;;
7575;SDS011;3829;50.798;4.358;2023-08-30T12:23:34;11.23;;;2.47;;
7575;SDS011;3829;50.798;4.358;2023-08-30T12:26:00;10.27;;;3.47;;
7575;SDS011;3829;50.798;4.358;2023-08-30T12:28:29;6.37;;;2.83;;
7575;SDS011;3829;50.798;4.358;2023-08-30T12:30:55;6.40;;;2.20;;
7575;SDS011;3829;50.798;4.358;2023-08-30T12:33:22;6.53;;;2.90;;
7575;SDS011;3829;50.798;4.358;2023-08-30T12:35:48;5.10;;;2.27;;
7575;SDS011;3829;50.798;4.358;2023-08-30T12:38:13;9.27;;;2.87;;
7575;SDS011;3829;50.798;4.358;2023-08-30T12:40:50;9.73;;;2.50;;
7575;SDS011;3829;50.798;4.358;2023-08-30T12:43:18;5.27;;;2.10;;
7575;SDS011;3829;50.798;4.358;2023-08-30T12:45:45;7.47;;;2.00;;
7575;SDS011;3829;50.798;4.358;2023-08-30T12:48:11;6.13;;;2.70;;
7575;SDS011;3829;50.798;4.358;2023-08-30T12:50:41;10.83;;;2.33;;
7575;SDS011;3829;50.798;4.358;2023-08-30T12:53:09;6.77;;;1.90;;
7575;SDS011;3829;50.798;4.358;2023-08-30T12:55:35;3.77;;;2.00;;
7575;SDS011;3829;50.798;4.358;2023-08-30T12:58:00;4.07;;;1.90;;
7575;SDS011;3829;50.798;4.358;2023-08-30T13:00:27;6.97;;;2.47;;
7575;SDS011;3829;50.798;4.358;2023-08-30T13:02:53;6.73;;;2.10;;
7575;SDS011;3829;50.798;4.358;2023-08-30T13:05:19;5.40;;;1.97;;
7575;SDS011;3829;50.798;4.358;2023-08-30T13:07:46;5.60;;;1.93;;
7575;SDS011;3829;50.798;4.358;2023-08-30T13:10:12;4.37;;;1.87;;
7575;SDS011;3829;50.798;4.358;2023-08-30T13:12:38;5.67;;;1.93;;
7575;SDS011;3829;50.798;4.358;2023-08-30T13:15:04;6.33;;;1.60;;
7575;SDS011;3829;50.798;4.358;2023-08-30T13:17:30;5.20;;;1.50;;
7575;SDS011;3829;50.798;4.358;2023-08-30T13:19:55;5.03;;;1.77;;
7575;SDS011;3829;50.798;4.358;2023-08-30T13:22:23;6.47;;;1.77;;
7575;SDS011;3829;50.798;4.358;2023-08-30T13:24:49;4.37;;;1.90;;
7575;SDS011;3829;50.798;4.358;2023-08-30T13:27:15;4.90;;;2.00;;
7575;SDS011;3829;50.798;4.358;2023-08-30T13:29:41;4.53;;;1.50;;
7575;SDS011;3829;50.798;4.358;2023-08-30T13:32:06;4.93;;;1.53;;
7575;SDS011;3829;50.798;4.358;2023-08-30T13:34:32;3.50;;;1.50;;
7575;SDS011;3829;50.798;4.358;2023-08-30T13:36:58;5.33;;;1.67;;
7575;SDS011;3829;50.798;4.358;2023-08-30T13:39:23;4.23;;;1.50;;
7575;SDS011;3829;50.798;4.358;2023-08-30T13:41:49;4.93;;;1.70;;
7575;SDS011;3829;50.798;4.358;2023-08-30T13:44:15;4.63;;;1.97;;
7575;SDS011;3829;50.798;4.358;2023-08-30T13:46:43;3.73;;;1.70;;
7575;SDS011;3829;50.798;4.358;2023-08-30T13:49:09;5.53;;;1.70;;
7575;SDS011;3829;50.798;4.358;2023-08-30T13:51:35;3.83;;;1.57;;
7575;SDS011;3829;50.798;4.358;2023-08-30T13:54:02;4.57;;;1.80;;
7575;SDS011;3829;50.798;4.358;2023-08-30T13:56:27;5.43;;;2.90;;
7575;SDS011;3829;50.798;4.358;2023-08-30T13:58:55;5.23;;;1.60;;
7575;SDS011;3829;50.798;4.358;2023-08-30T14:01:22;10.40;;;2.10;;
7575;SDS011;3829;50.798;4.358;2023-08-30T14:03:47;6.57;;;1.80;;
7575;SDS011;3829;50.798;4.358;2023-08-30T14:06:13;4.83;;;1.60;;
7575;SDS011;3829;50.798;4.358;2023-08-30T14:08:39;2.73;;;1.27;;
7575;SDS011;3829;50.798;4.358;2023-08-30T14:11:04;3.97;;;1.93;;
7575;SDS011;3829;50.798;4.358;2023-08-30T14:13:30;3.80;;;1.70;;
7575;SDS011;3829;50.798;4.358;2023-08-30T14:15:58;3.83;;;1.60;;
7575;SDS011;3829;50.798;4.358;2023-08-30T14:18:25;3.90;;;2.03;;
7575;SDS011;3829;50.798;4.358;2023-08-30T14:20:54;6.63;;;1.77;;
7575;SDS011;3829;50.798;4.358;2023-08-30T14:23:21;4.17;;;1.93;;
7575;SDS011;3829;50.798;4.358;2023-08-30T14:25:46;2.40;;;1.77;;
7575;SDS011;3829;50.798;4.358;2023-08-30T14:28:21;3.20;;;1.60;;
7575;SDS011;3829;50.798;4.358;2023-08-30T14:30:46;5.47;;;1.60;;
7575;SDS011;3829;50.798;4.358;2023-08-30T14:33:12;5.60;;;1.93;;
7575;SDS011;3829;50.798;4.358;2023-08-30T14:35:41;3.90;;;1.77;;
7575;SDS011;3829;50.798;4.358;2023-08-30T14:38:07;4.37;;;1.50;;
7575;SDS011;3829;50.798;4.358;2023-08-30T14:40:32;6.03;;;1.40;;
7575;SDS011;3829;50.798;4.358;2023-08-30T14:42:58;5.20;;;2.00;;
7575;SDS011;3829;50.798;4.358;2023-08-30T14:45:23;5.63;;;1.73;;
7575;SDS011;3829;50.798;4.358;2023-08-30T14:47:49;6.60;;;1.70;;
7575;SDS011;3829;50.798;4.358;2023-08-30T14:50:15;5.83;;;1.60;;
7575;SDS011;3829;50.798;4.358;2023-08-30T14:52:40;5.80;;;1.63;;
7575;SDS011;3829;50.798;4.358;2023-08-30T14:55:06;2.93;;;1.27;;
7575;SDS011;3829;50.798;4.358;2023-08-30T14:57:32;3.90;;;1.40;;
7575;SDS011;3829;50.798;4.358;2023-08-30T14:59:57;5.20;;;1.77;;
7575;SDS011;3829;50.798;4.358;2023-08-30T15:02:23;2.77;;;1.47;;
7575;SDS011;3829;50.798;4.358;2023-08-30T15:04:49;3.93;;;1.47;;
7575;SDS011;3829;50.798;4.358;2023-08-30T15:07:15;7.97;;;1.57;;
7575;SDS011;3829;50.798;4.358;2023-08-30T15:09:40;4.80;;;1.20;;
7575;SDS011;3829;50.798;4.358;2023-08-30T15:12:06;2.93;;;1.30;;
7575;SDS011;3829;50.798;4.358;2023-08-30T15:14:32;5.40;;;1.40;;